Time;durP1;ratioP1;P1;durP2;ratioP2;P2;SDS_P1;SDS_P2;PMS_P1;PMS_P2;Temp;Humidity;BMP_temperature;BMP_pressure;BME280_temperature;BME280_humidity;BME280_pressure;Samples;Min_cycle;Max_cycle;Signal;HPM_P1;HPM_P2
2021/01/21 00:02:11;;;;;;;;;;;-1.20;99.90;;;;;;5020641;28;20268;-64
2021/01/21 00:04:36;;;;;;;;;;;-1.20;99.90;;;;;;5015128;28;19917;-60
2021/01/21 00:07:02;;;;;;;;;;;-1.30;99.90;;;;;;5017893;28;19963;-66
2021/01/21 00:09:27;;;;;;;;;;;-1.10;99.90;;;;;;5003515;28;20368;-63
2021/01/21 00:11:53;;;;;;;;;;;-1.70;99.90;;;;;;5033650;28;19917;-59
2021/01/21 00:14:18;;;;;;;;;;;-1.00;99.90;;;;;;5018674;28;19921;-65
2021/01/21 00:16:44;;;;;;;;;;;-1.90;99.90;;;;;;5020509;28;19913;-60
2021/01/21 00:19:09;;;;;;;;;;;-1.20;99.90;;;;;;5017106;28;19929;-64
2021/01/21 00:21:35;;;;;;;;;;;-0.90;99.90;;;;;;5020098;28;19949;-63
2021/01/21 00:24:00;;;;;;;;;;;-1.10;99.90;;;;;;5016407;28;19939;-60
2021/01/21 00:26:26;;;;;;;;;;;-1.10;99.90;;;;;;5017383;28;19948;-65
2021/01/21 00:28:52;;;;;;;;;;;-1.10;99.90;;;;;;5019248;28;20055;-63
2021/01/21 00:31:17;;;;;;;;;;;-0.80;99.90;;;;;;5018165;28;19928;-63
2021/01/21 00:33:42;;;;;;;;;;;-0.60;99.90;;;;;;5013269;28;19921;-65
2021/01/21 00:36:08;;;;;;;;;;;-0.80;99.90;;;;;;5018232;28;19960;-60
2021/01/21 00:38:33;;;;;;;;;;;-1.00;99.90;;;;;;5020070;28;20181;-65
2021/01/21 00:40:59;;;;;;;;;;;-0.90;99.90;;;;;;5018260;28;19917;-62
2021/01/21 00:43:24;;;;;;;;;;;-0.70;99.90;;;;;;5016053;28;19917;-65
2021/01/21 00:45:51;;;;;;;;;;;-0.80;99.90;;;;;;5019250;28;19921;-63
2021/01/21 00:48:17;;;;;;;;;;;-1.10;99.90;;;;;;5018493;28;19917;-64
2021/01/21 00:50:43;;;;;;;;;;;-1.00;99.90;;;;;;4997542;28;20067;-63
2021/01/21 00:53:08;;;;;;;;;;;-0.90;99.90;;;;;;5019867;28;19963;-65
2021/01/21 00:55:33;;;;;;;;;;;-1.10;99.90;;;;;;5021254;28;20537;-63
2021/01/21 00:57:59;;;;;;;;;;;-0.90;99.90;;;;;;5022576;28;19914;-66
2021/01/21 01:00:24;;;;;;;;;;;-1.10;99.90;;;;;;5023518;28;20008;-63
2021/01/21 01:02:50;;;;;;;;;;;-1.20;99.90;;;;;;5022380;28;20056;-63
2021/01/21 01:05:15;;;;;;;;;;;-1.00;99.90;;;;;;5024271;28;19921;-62
2021/01/21 01:07:41;;;;;;;;;;;-1.20;99.90;;;;;;5021906;28;20630;-62
2021/01/21 01:10:07;;;;;;;;;;;-1.30;99.90;;;;;;5020963;28;19917;-64
2021/01/21 01:12:32;;;;;;;;;;;-1.20;99.90;;;;;;5003824;28;20419;-63
2021/01/21 01:14:58;;;;;;;;;;;-1.20;99.90;;;;;;5020822;28;19944;-58
2021/01/21 01:17:23;;;;;;;;;;;-0.30;99.90;;;;;;5020997;28;20532;-64
2021/01/21 01:19:49;;;;;;;;;;;-1.40;99.90;;;;;;5020889;28;19999;-61
2021/01/21 01:22:15;;;;;;;;;;;-1.30;99.90;;;;;;5023717;28;19913;-64
2021/01/21 01:24:41;;;;;;;;;;;-1.10;99.90;;;;;;5022957;28;20000;-62
2021/01/21 01:27:07;;;;;;;;;;;-1.20;99.90;;;;;;5021819;28;19941;-63
2021/01/21 01:29:33;;;;;;;;;;;-1.30;99.90;;;;;;5004923;28;19917;-62
2021/01/21 01:31:58;;;;;;;;;;;-1.40;99.90;;;;;;5006926;28;19921;-62
2021/01/21 01:34:24;;;;;;;;;;;-1.40;99.90;;;;;;5018509;28;19944;-64
2021/01/21 01:36:49;;;;;;;;;;;-1.50;99.90;;;;;;5018262;28;19960;-64
2021/01/21 01:39:15;;;;;;;;;;;-1.40;99.90;;;;;;5021987;28;20021;-61
2021/01/21 01:41:40;;;;;;;;;;;-1.40;99.90;;;;;;5023615;28;20284;-63
2021/01/21 01:44:06;;;;;;;;;;;-1.50;99.90;;;;;;5019922;28;20016;-63
2021/01/21 01:46:32;;;;;;;;;;;-1.50;99.90;;;;;;5022403;28;19918;-64
2021/01/21 01:48:58;;;;;;;;;;;-1.50;99.90;;;;;;5023262;28;20327;-63
2021/01/21 01:51:23;;;;;;;;;;;-1.40;99.90;;;;;;5037087;28;20582;-61
2021/01/21 01:53:49;;;;;;;;;;;-1.50;99.90;;;;;;5021729;28;19925;-62
2021/01/21 01:56:15;;;;;;;;;;;-1.50;99.90;;;;;;5004135;28;19931;-60
2021/01/21 01:58:40;;;;;;;;;;;-1.50;99.90;;;;;;5019383;28;19967;-64
2021/01/21 02:01:06;;;;;;;;;;;-1.40;99.90;;;;;;5006392;28;20757;-65
2021/01/21 02:03:31;;;;;;;;;;;-1.50;99.90;;;;;;5021182;28;19924;-64
2021/01/21 02:05:57;;;;;;;;;;;-1.40;99.90;;;;;;5020855;28;19917;-66
2021/01/21 02:08:23;;;;;;;;;;;-1.30;99.90;;;;;;5019344;28;20735;-63
2021/01/21 02:10:49;;;;;;;;;;;-1.40;99.90;;;;;;5020991;28;20012;-62
2021/01/21 02:13:22;;;;;;;;;;;-1.50;99.90;;;;;;5004395;28;19917;-66
2021/01/21 02:15:53;;;;;;;;;;;-1.50;99.90;;;;;;5020750;28;19924;-61
2021/01/21 02:18:21;;;;;;;;;;;-0.80;99.90;;;;;;5021107;28;20619;-63
2021/01/21 02:21:02;;;;;;;;;;;-1.50;99.90;;;;;;5021544;28;19921;-59
2021/01/21 02:23:34;;;;;;;;;;;-1.40;99.90;;;;;;5018563;28;19962;-63
2021/01/21 02:26:03;;;;;;;;;;;-1.50;99.90;;;;;;5022372;28;19917;-65
2021/01/21 02:28:49;;;;;;;;;;;-1.40;99.90;;;;;;5019469;28;19925;-65
2021/01/21 02:31:22;;;;;;;;;;;-1.40;99.90;;;;;;5018729;28;19970;-62
2021/01/21 02:33:57;;;;;;;;;;;-1.30;99.90;;;;;;5034713;28;20418;-63
2021/01/21 02:36:41;;;;;;;;;;;-1.20;99.90;;;;;;5014428;28;19925;-65
2021/01/21 02:39:09;;;;;;;;;;;-1.40;99.90;;;;;;5020525;28;19928;-63
2021/01/21 02:41:34;;;;;;;;;;;-1.10;99.90;;;;;;5020618;28;20492;-63
2021/01/21 02:44:00;;;;;;;;;;;;;;;;;;5019559;28;19972;-62
2021/01/21 02:46:26;;;;;;;;;;;-1.20;99.90;;;;;;5022764;28;19964;-61
2021/01/21 02:48:52;;;;;;;;;;;-1.10;99.90;;;;;;5018783;28;20012;-64
2021/01/21 02:51:23;;;;;;;;;;;-0.90;99.90;;;;;;5020654;28;19917;-65
2021/01/21 02:53:56;;;;;;;;;;;-1.10;99.90;;;;;;5017910;28;19913;-63
2021/01/21 02:56:22;;;;;;;;;;;-1.00;99.90;;;;;;5020080;28;20059;-63
2021/01/21 02:58:50;;;;;;;;;;;-1.00;99.90;;;;;;5022079;28;20071;-61
2021/01/21 03:01:16;;;;;;;;;;;-1.20;99.90;;;;;;5035847;28;20423;-62
2021/01/21 03:03:42;;;;;;;;;;;-0.80;99.90;;;;;;5023698;28;19921;-65
2021/01/21 03:06:08;;;;;;;;;;;-0.90;99.90;;;;;;5025428;28;19913;-62
2021/01/21 03:08:35;;;;;;;;;;;-1.00;99.90;;;;;;5022943;28;19917;-65
2021/01/21 03:11:10;;;;;;;;;;;-1.00;99.90;;;;;;5023449;28;20063;-61
2021/01/21 03:13:38;;;;;;;;;;;-1.00;99.90;;;;;;5003021;28;19918;-66
2021/01/21 03:16:06;;;;;;;;;;;-1.00;99.90;;;;;;5022732;28;19917;-63
2021/01/21 03:18:32;;;;;;;;;;;-0.70;99.90;;;;;;5024558;28;20569;-63
2021/01/21 03:20:57;;;;;;;;;;;-0.90;99.90;;;;;;5020886;28;19913;-64
2021/01/21 03:23:23;;;;;;;;;;;-0.70;99.90;;;;;;5023324;28;19960;-64
2021/01/21 03:25:48;;;;;;;;;;;-0.70;99.90;;;;;;5024704;28;19948;-63
2021/01/21 03:28:14;;;;;;;;;;;-0.80;99.90;;;;;;5022203;28;19979;-63
2021/01/21 03:30:39;;;;;;;;;;;-0.90;99.90;;;;;;5024459;28;20323;-62
2021/01/21 03:33:05;;;;;;;;;;;-0.70;99.90;;;;;;5019598;28;19913;-62
2021/01/21 03:35:30;;;;;;;;;;;-0.80;99.90;;;;;;5020771;28;19952;-63
2021/01/21 03:37:56;;;;;;;;;;;-0.60;99.90;;;;;;5023870;28;20299;-63
2021/01/21 03:40:21;;;;;;;;;;;-0.50;99.90;;;;;;5023668;28;19929;-64
2021/01/21 03:42:47;;;;;;;;;;;-0.60;99.90;;;;;;5025700;28;19960;-63
2021/01/21 03:45:12;;;;;;;;;;;-0.40;99.90;;;;;;5021784;28;19922;-61
2021/01/21 03:47:40;;;;;;;;;;;-0.90;99.90;;;;;;5024359;28;20422;-62
2021/01/21 03:50:06;;;;;;;;;;;-0.60;99.90;;;;;;5023900;28;19967;-60
2021/01/21 03:52:32;;;;;;;;;;;-0.80;99.90;;;;;;5022542;28;20615;-66
2021/01/21 03:54:57;;;;;;;;;;;-0.50;99.90;;;;;;5026406;28;19921;-63
2021/01/21 03:57:23;;;;;;;;;;;-0.60;99.90;;;;;;5020751;28;19917;-62
2021/01/21 03:59:48;;;;;;;;;;;-0.50;99.90;;;;;;5024531;28;20364;-64
2021/01/21 04:02:14;;;;;;;;;;;;;;;;;;5017129;28;19920;-63
2021/01/21 04:04:39;;;;;;;;;;;-0.90;99.90;;;;;;5018474;28;19921;-62
2021/01/21 04:07:05;;;;;;;;;;;-0.60;99.90;;;;;;5022817;28;20480;-63
2021/01/21 04:09:30;;;;;;;;;;;-0.60;99.90;;;;;;5019220;28;19913;-64
2021/01/21 04:11:56;;;;;;;;;;;-0.40;99.90;;;;;;5018614;28;19917;-63
2021/01/21 04:14:21;;;;;;;;;;;-0.70;99.90;;;;;;5002349;28;19913;-64
2021/01/21 04:16:47;;;;;;;;;;;-0.30;99.90;;;;;;5019467;28;19913;-58
2021/01/21 04:19:12;;;;;;;;;;;-0.50;99.90;;;;;;5002208;28;19921;-65
2021/01/21 04:21:38;;;;;;;;;;;-0.50;99.90;;;;;;5016688;28;20372;-63
2021/01/21 04:24:04;;;;;;;;;;;-0.50;99.90;;;;;;5021043;28;19913;-63
2021/01/21 04:26:29;;;;;;;;;;;-0.70;99.90;;;;;;5019358;28;19921;-63
2021/01/21 04:28:55;;;;;;;;;;;-0.50;99.90;;;;;;5016368;28;19944;-64
2021/01/21 04:31:20;;;;;;;;;;;-0.60;99.90;;;;;;5020600;28;19920;-62
2021/01/21 04:33:46;;;;;;;;;;;-0.60;99.90;;;;;;5020136;28;20418;-63
2021/01/21 04:36:11;;;;;;;;;;;-0.40;99.90;;;;;;5018763;28;19913;-62
2021/01/21 04:38:37;;;;;;;;;;;-0.50;99.90;;;;;;5004468;28;19921;-64
2021/01/21 04:41:02;;;;;;;;;;;-0.40;99.90;;;;;;5017508;28;19918;-63
2021/01/21 04:43:31;;;;;;;;;;;0.30;99.90;;;;;;5021248;28;19917;-63
2021/01/21 04:45:56;;;;;;;;;;;-0.30;99.90;;;;;;5018377;28;19917;-64
2021/01/21 04:48:22;;;;;;;;;;;-0.40;99.90;;;;;;5020181;28;19913;-61
2021/01/21 04:50:48;;;;;;;;;;;-0.30;99.90;;;;;;5020825;28;20278;-62
2021/01/21 04:53:15;;;;;;;;;;;-0.30;99.90;;;;;;5019688;28;19913;-64
2021/01/21 04:55:46;;;;;;;;;;;-0.60;99.90;;;;;;5037448;28;20530;-63
2021/01/21 04:58:14;;;;;;;;;;;-0.30;99.90;;;;;;5014281;28;19917;-63
2021/01/21 05:00:42;;;;;;;;;;;-0.40;99.90;;;;;;5015683;28;20016;-66
2021/01/21 05:03:08;;;;;;;;;;;-0.30;99.90;;;;;;5003264;28;19951;-61
2021/01/21 05:05:36;;;;;;;;;;;-0.50;99.90;;;;;;5006370;28;19960;-64
2021/01/21 05:08:04;;;;;;;;;;;-0.40;99.90;;;;;;5019955;28;19941;-62
2021/01/21 05:10:31;;;;;;;;;;;-0.40;99.90;;;;;;5016401;28;20012;-63
2021/01/21 05:12:59;;;;;;;;;;;-0.40;99.90;;;;;;5020680;28;19932;-63
2021/01/21 05:15:25;;;;;;;;;;;-0.40;99.90;;;;;;5022713;28;20427;-61
2021/01/21 05:17:50;;;;;;;;;;;0.00;99.90;;;;;;5019020;28;19921;-62
2021/01/21 05:20:16;;;;;;;;;;;-0.30;99.90;;;;;;5014807;28;19926;-63
2021/01/21 05:22:41;;;;;;;;;;;-0.30;99.90;;;;;;5020629;28;19935;-62
2021/01/21 05:25:07;;;;;;;;;;;-0.20;99.90;;;;;;5032942;28;19967;-64
2021/01/21 05:27:34;;;;;;;;;;;-0.30;99.90;;;;;;5021708;28;19917;-62
2021/01/21 05:30:00;;;;;;;;;;;-0.20;99.90;;;;;;5016965;28;20015;-63
2021/01/21 05:32:26;;;;;;;;;;;-0.30;99.90;;;;;;5020808;28;19953;-61
2021/01/21 05:34:51;;;;;;;;;;;0.10;99.90;;;;;;5020812;28;20809;-66
2021/01/21 05:37:17;;;;;;;;;;;0.00;99.90;;;;;;5019364;28;19927;-63
2021/01/21 05:39:43;;;;;;;;;;;-0.10;99.90;;;;;;5024359;28;19928;-65
2021/01/21 05:42:09;;;;;;;;;;;0.00;99.90;;;;;;5006283;28;19954;-58
2021/01/21 05:44:35;;;;;;;;;;;0.10;99.90;;;;;;5025399;28;19917;-64
2021/01/21 05:47:01;;;;;;;;;;;0.20;99.90;;;;;;5024565;28;19919;-64
2021/01/21 05:49:27;;;;;;;;;;;0.40;99.90;;;;;;5023452;28;19921;-63
2021/01/21 05:51:53;;;;;;;;;;;0.40;99.90;;;;;;5024268;28;19917;-65
2021/01/21 05:54:19;;;;;;;;;;;0.40;99.90;;;;;;5006082;28;19916;-65
2021/01/21 05:56:44;;;;;;;;;;;0.40;99.90;;;;;;5025181;28;20471;-67
2021/01/21 05:59:10;;;;;;;;;;;0.50;99.90;;;;;;5022794;28;19928;-64
2021/01/21 06:01:36;;;;;;;;;;;0.30;99.90;;;;;;5019307;28;19917;-67
2021/01/21 06:04:03;;;;;;;;;;;0.60;99.90;;;;;;5004851;28;19913;-63
2021/01/21 06:06:29;;;;;;;;;;;0.50;99.90;;;;;;5018587;28;19917;-66
2021/01/21 06:08:55;;;;;;;;;;;0.60;99.90;;;;;;5020699;28;19913;-62
2021/01/21 06:11:21;;;;;;;;;;;0.70;99.90;;;;;;5023154;28;19979;-64
2021/01/21 06:13:47;;;;;;;;;;;0.80;99.90;;;;;;5003485;28;20537;-63
2021/01/21 06:16:14;;;;;;;;;;;0.60;99.90;;;;;;5016505;28;19975;-62
2021/01/21 06:18:41;;;;;;;;;;;0.70;99.90;;;;;;5022335;28;20648;-61
2021/01/21 06:21:10;;;;;;;;;;;0.70;99.90;;;;;;5021489;28;19924;-64
2021/01/21 06:23:37;;;;;;;;;;;0.80;99.90;;;;;;5022798;28;19960;-62
2021/01/21 06:26:07;;;;;;;;;;;0.70;99.90;;;;;;5022364;28;19944;-65
2021/01/21 06:28:34;;;;;;;;;;;0.90;99.90;;;;;;5046333;28;19913;-64
2021/01/21 06:31:00;;;;;;;;;;;0.80;99.90;;;;;;5037895;28;19941;-61
2021/01/21 06:33:28;;;;;;;;;;;0.80;99.90;;;;;;5019901;28;19928;-65
2021/01/21 06:36:01;;;;;;;;;;;1.20;99.90;;;;;;5022218;28;19944;-64
2021/01/21 06:38:34;;;;;;;;;;;1.00;99.90;;;;;;5019067;28;19925;-61
2021/01/21 06:41:01;;;;;;;;;;;1.10;99.90;;;;;;5022236;28;20023;-65
2021/01/21 06:43:28;;;;;;;;;;;1.20;99.90;;;;;;5020736;28;19924;-65
2021/01/21 06:45:56;;;;;;;;;;;1.30;99.90;;;;;;5036632;28;21011;-64
2021/01/21 06:48:24;;;;;;;;;;;1.70;99.90;;;;;;5022485;28;19924;-63
2021/01/21 06:50:50;;;;;;;;;;;1.30;99.90;;;;;;5020678;28;19952;-61
2021/01/21 06:53:16;;;;;;;;;;;1.30;99.90;;;;;;5004338;28;20673;-63
2021/01/21 06:55:49;;;;;;;;;;;1.30;99.90;;;;;;5021315;28;19927;-61
2021/01/21 06:58:34;;;;;;;;;;;1.20;99.90;;;;;;5015536;28;19954;-62
2021/01/21 07:01:00;;;;;;;;;;;1.50;99.90;;;;;;5018611;28;19920;-62
2021/01/21 07:03:26;;;;;;;;;;;1.40;99.90;;;;;;5021502;28;19917;-63
2021/01/21 07:06:02;;;;;;;;;;;1.40;99.90;;;;;;5020854;28;19925;-64
2021/01/21 07:08:28;;;;;;;;;;;1.20;99.90;;;;;;5021830;28;19924;-62
2021/01/21 07:11:01;;;;;;;;;;;1.40;99.90;;;;;;5018710;28;19980;-64
2021/01/21 07:13:29;;;;;;;;;;;1.30;99.90;;;;;;5005247;28;19996;-63
2021/01/21 07:15:57;;;;;;;;;;;1.40;99.90;;;;;;5020779;28;20002;-65
2021/01/21 07:18:24;;;;;;;;;;;1.30;99.90;;;;;;5018760;28;19924;-62
2021/01/21 07:20:58;;;;;;;;;;;1.60;99.90;;;;;;5019305;28;19928;-65
2021/01/21 07:23:30;;;;;;;;;;;1.50;99.90;;;;;;5020327;28;20008;-62
2021/01/21 07:26:14;;;;;;;;;;;1.80;99.90;;;;;;5020569;28;19924;-67
2021/01/21 07:28:58;;;;;;;;;;;1.70;99.90;;;;;;5018911;28;19917;-63
2021/01/21 07:31:24;;;;;;;;;;;1.60;99.90;;;;;;5019337;28;19913;-65
2021/01/21 07:34:09;;;;;;;;;;;1.80;99.90;;;;;;5021649;28;19925;-62
2021/01/21 07:36:34;;;;;;;;;;;1.50;99.90;;;;;;5022457;28;19924;-66
2021/01/21 07:39:00;;;;;;;;;;;1.80;99.90;;;;;;5017426;28;19925;-63
2021/01/21 07:41:41;;;;;;;;;;;1.70;99.90;;;;;;5019030;28;20047;-62
2021/01/21 07:44:06;;;;;;;;;;;1.70;99.90;;;;;;5019419;28;19924;-64
2021/01/21 07:46:32;;;;;;;;;;;1.80;99.90;;;;;;5019783;28;19921;-62
2021/01/21 07:49:16;;;;;;;;;;;1.70;99.90;;;;;;5019900;28;19921;-62
2021/01/21 07:51:42;;;;;;;;;;;1.90;99.90;;;;;;5020187;28;19962;-61
2021/01/21 07:54:07;;;;;;;;;;;2.00;99.90;;;;;;5018497;28;19916;-63
2021/01/21 07:56:33;;;;;;;;;;;2.00;99.90;;;;;;5015872;28;20550;-64
2021/01/21 07:58:58;;;;;;;;;;;;;;;;;;5018673;28;19935;-63
2021/01/21 08:01:24;;;;;;;;;;;2.10;99.90;;;;;;5018232;28;19913;-67
2021/01/21 08:03:49;;;;;;;;;;;2.20;99.90;;;;;;5004415;28;22108;-61
2021/01/21 08:06:17;;;;;;;;;;;2.10;99.90;;;;;;5002713;28;19944;-62
2021/01/21 08:08:47;;;;;;;;;;;2.10;99.90;;;;;;5022239;28;20011;-61
2021/01/21 08:11:19;;;;;;;;;;;2.10;99.90;;;;;;5017763;28;20396;-60
2021/01/21 08:13:55;;;;;;;;;;;2.20;99.90;;;;;;5018541;28;20710;-64
2021/01/21 08:16:20;;;;;;;;;;;2.30;99.90;;;;;;5018136;28;19913;-64
2021/01/21 08:18:46;;;;;;;;;;;2.30;99.90;;;;;;5019857;28;19933;-59
2021/01/21 08:21:21;;;;;;;;;;;2.20;99.90;;;;;;5019097;28;19932;-59
2021/01/21 08:24:08;;;;;;;;;;;2.30;99.90;;;;;;5021602;28;19919;-60
2021/01/21 08:26:35;;;;;;;;;;;2.20;99.90;;;;;;5035199;28;19925;-62
2021/01/21 08:29:03;;;;;;;;;;;2.50;99.90;;;;;;5020284;28;20368;-63
2021/01/21 08:31:34;;;;;;;;;;;2.30;99.90;;;;;;5017292;28;19916;-60
2021/01/21 08:34:00;;;;;;;;;;;2.40;99.90;;;;;;5020706;28;19921;-62
2021/01/21 08:36:28;;;;;;;;;;;2.90;99.90;;;;;;5020647;28;19956;-63
2021/01/21 08:38:54;;;;;;;;;;;3.10;99.90;;;;;;5018699;28;19916;-59
2021/01/21 08:41:20;;;;;;;;;;;3.20;99.90;;;;;;5007963;28;19921;-62
2021/01/21 08:43:46;;;;;;;;;;;3.00;99.90;;;;;;5018317;28;20055;-64
2021/01/21 08:46:11;;;;;;;;;;;4.20;99.90;;;;;;5022064;28;20012;-67
2021/01/21 08:48:37;;;;;;;;;;;4.40;99.90;;;;;;5021762;28;19945;-65
2021/01/21 08:51:02;;;;;;;;;;;4.70;99.90;;;;;;5015683;28;19917;-65
2021/01/21 08:53:30;;;;;;;;;;;4.80;99.90;;;;;;5019084;28;20701;-63
2021/01/21 08:56:00;;;;;;;;;;;4.90;99.90;;;;;;5015600;28;19917;-60
2021/01/21 08:58:29;;;;;;;;;;;5.40;99.90;;;;;;5017000;28;19913;-60
2021/01/21 09:00:55;;;;;;;;;;;;;;;;;;5021585;28;20548;-63
2021/01/21 09:03:30;;;;;;;;;;;5.50;99.90;;;;;;5020308;28;19917;-63
2021/01/21 09:05:56;;;;;;;;;;;6.30;99.90;;;;;;5006848;28;19924;-62
2021/01/21 09:08:22;;;;;;;;;;;6.20;99.90;;;;;;5005394;28;19923;-59
2021/01/21 09:10:47;;;;;;;;;;;6.20;99.90;;;;;;5018629;28;20007;-64
2021/01/21 09:13:18;;;;;;;;;;;6.50;99.90;;;;;;5012751;28;19918;-64
2021/01/21 09:15:58;;;;;;;;;;;6.70;99.90;;;;;;5020915;28;20007;-63
2021/01/21 09:18:24;;;;;;;;;;;7.10;99.90;;;;;;5001746;28;19921;-62
2021/01/21 09:20:50;;;;;;;;;;;7.90;99.90;;;;;;5023696;28;20430;-64
2021/01/21 09:23:20;;;;;;;;;;;8.80;99.90;;;;;;5023254;28;19917;-62
2021/01/21 09:25:46;;;;;;;;;;;8.60;99.90;;;;;;5024370;28;19913;-61
2021/01/21 09:28:13;;;;;;;;;;;8.90;99.90;;;;;;5008696;28;19925;-58
2021/01/21 09:30:39;;;;;;;;;;;8.30;99.90;;;;;;5023260;28;19992;-64
2021/01/21 09:33:05;;;;;;;;;;;8.30;99.90;;;;;;5025057;28;19917;-59
2021/01/21 09:35:30;;;;;;;;;;;8.30;99.90;;;;;;5023096;28;19967;-63
2021/01/21 09:37:57;;;;;;;;;;;8.40;99.90;;;;;;5024928;28;20024;-64
2021/01/21 09:40:24;;;;;;;;;;;8.40;99.90;;;;;;5023118;28;20360;-64
2021/01/21 09:42:54;;;;;;;;;;;8.40;99.90;;;;;;5022654;28;19961;-61
2021/01/21 09:45:20;;;;;;;;;;;9.20;98.70;;;;;;5018349;28;20342;-62
2021/01/21 09:47:46;;;;;;;;;;;10.00;99.50;;;;;;5019634;28;19917;-63
2021/01/21 09:50:12;;;;;;;;;;;10.30;99.00;;;;;;5022611;28;20312;-64
2021/01/21 09:52:37;;;;;;;;;;;10.20;99.00;;;;;;5023056;28;20842;-64
2021/01/21 09:55:04;;;;;;;;;;;10.20;98.90;;;;;;5020366;28;20349;-64
2021/01/21 09:57:29;;;;;;;;;;;9.90;98.70;;;;;;5022525;28;19913;-61
2021/01/21 09:59:55;;;;;;;;;;;10.10;98.80;;;;;;5021686;28;19932;-64
2021/01/21 10:02:24;;;;;;;;;;;10.40;98.70;;;;;;5023499;28;19994;-64
2021/01/21 10:04:49;;;;;;;;;;;9.90;98.60;;;;;;5018938;28;20331;-65
2021/01/21 10:07:15;;;;;;;;;;;10.00;98.90;;;;;;5020988;28;19917;-62
2021/01/21 10:09:40;;;;;;;;;;;9.70;99.00;;;;;;5003014;28;19918;-64
2021/01/21 10:12:06;;;;;;;;;;;10.10;99.10;;;;;;5019252;28;19975;-62
2021/01/21 10:14:32;;;;;;;;;;;9.90;99.50;;;;;;5022592;28;19921;-62
2021/01/21 10:16:58;;;;;;;;;;;9.80;99.10;;;;;;5020153;28;19924;-61
2021/01/21 10:19:24;;;;;;;;;;;10.00;99.50;;;;;;5019809;28;19921;-66
2021/01/21 10:21:49;;;;;;;;;;;10.10;99.40;;;;;;5021439;28;19921;-61
2021/01/21 10:24:15;;;;;;;;;;;10.50;99.70;;;;;;5016315;28;19921;-62
2021/01/21 10:26:41;;;;;;;;;;;10.20;99.90;;;;;;5021908;28;20014;-65
2021/01/21 10:29:06;;;;;;;;;;;9.90;99.90;;;;;;5021910;28;19929;-61
2021/01/21 10:31:32;;;;;;;;;;;9.90;99.90;;;;;;5022906;28;19913;-64
2021/01/21 10:33:57;;;;;;;;;;;10.00;98.90;;;;;;5023959;28;20487;-62
2021/01/21 10:36:23;;;;;;;;;;;10.40;99.30;;;;;;5019255;28;20134;-61
2021/01/21 10:38:51;;;;;;;;;;;10.20;98.10;;;;;;5020039;28;20459;-58
2021/01/21 10:41:17;;;;;;;;;;;10.40;98.10;;;;;;5017574;28;19992;-61
2021/01/21 10:43:42;;;;;;;;;;;10.30;97.10;;;;;;5018990;28;20396;-64
2021/01/21 10:46:08;;;;;;;;;;;10.60;96.80;;;;;;5024128;28;19921;-64
2021/01/21 10:48:33;;;;;;;;;;;10.60;96.00;;;;;;5021386;28;20510;-69
2021/01/21 10:50:59;;;;;;;;;;;10.70;95.80;;;;;;5023186;28;19917;-64
2021/01/21 10:53:24;;;;;;;;;;;10.70;95.10;;;;;;5023315;28;19974;-64
2021/01/21 10:55:50;;;;;;;;;;;10.70;95.20;;;;;;5037957;28;20013;-65
2021/01/21 10:58:15;;;;;;;;;;;10.80;95.40;;;;;;5021784;28;19917;-63
2021/01/21 11:00:41;;;;;;;;;;;11.00;95.10;;;;;;5006756;28;19948;-61
2021/01/21 11:03:07;;;;;;;;;;;11.50;95.20;;;;;;5038592;28;20000;-65
2021/01/21 11:05:32;;;;;;;;;;;11.70;93.40;;;;;;5035822;28;20357;-64
2021/01/21 11:07:58;;;;;;;;;;;11.80;93.90;;;;;;5002956;28;19949;-65
2021/01/21 11:10:23;;;;;;;;;;;11.60;93.50;;;;;;5017051;28;20015;-62
2021/01/21 11:12:49;;;;;;;;;;;11.60;93.40;;;;;;5006016;28;19917;-65
2021/01/21 11:15:16;;;;;;;;;;;11.50;92.90;;;;;;5019913;28;19924;-63
2021/01/21 11:17:42;;;;;;;;;;;11.60;92.80;;;;;;5021977;28;19967;-60
2021/01/21 11:20:07;;;;;;;;;;;11.60;92.40;;;;;;5021116;28;20265;-59
2021/01/21 11:22:33;;;;;;;;;;;11.20;92.20;;;;;;5022882;28;20276;-61
2021/01/21 11:24:58;;;;;;;;;;;11.30;92.40;;;;;;5017898;28;19952;-62
2021/01/21 11:27:26;;;;;;;;;;;11.30;92.40;;;;;;5023338;28;19918;-63
2021/01/21 11:29:52;;;;;;;;;;;11.40;92.50;;;;;;5021810;28;19924;-62
2021/01/21 11:32:17;;;;;;;;;;;11.50;92.20;;;;;;5019085;28;20552;-60
2021/01/21 11:34:43;;;;;;;;;;;11.50;92.50;;;;;;5026685;28;19971;-66
2021/01/21 11:37:11;;;;;;;;;;;11.10;92.10;;;;;;5002617;28;19913;-65
2021/01/21 11:39:36;;;;;;;;;;;11.40;92.40;;;;;;5022202;28;19924;-60
2021/01/21 11:42:02;;;;;;;;;;;11.30;92.50;;;;;;5020354;28;19917;-62
2021/01/21 11:44:27;;;;;;;;;;;11.90;91.70;;;;;;5018746;28;19921;-63
2021/01/21 11:46:53;;;;;;;;;;;;;;;;;;5022855;28;19923;-62
2021/01/21 11:49:20;;;;;;;;;;;;;;;;;;5018574;28;19914;-66
2021/01/21 11:51:45;;;;;;;;;;;12.80;94.80;;;;;;5019740;28;19913;-63
2021/01/21 11:54:11;;;;;;;;;;;12.90;94.40;;;;;;5020215;28;19913;-65
2021/01/21 11:56:36;;;;;;;;;;;12.60;93.50;;;;;;5019326;28;19925;-64
2021/01/21 11:59:02;;;;;;;;;;;12.40;93.70;;;;;;5016043;28;20540;-63
2021/01/21 12:01:27;;;;;;;;;;;12.70;93.30;;;;;;5020764;28;19917;-63
2021/01/21 12:03:54;;;;;;;;;;;12.20;93.00;;;;;;5019934;28;20646;-61
2021/01/21 12:06:19;;;;;;;;;;;12.50;93.60;;;;;;5023509;28;19917;-62
2021/01/21 12:08:45;;;;;;;;;;;12.70;93.40;;;;;;5020264;28;20097;-62
2021/01/21 12:11:10;;;;;;;;;;;13.20;92.70;;;;;;5018847;28;19936;-64
2021/01/21 12:13:36;;;;;;;;;;;14.90;78.50;;;;;;5005785;28;19929;-63
2021/01/21 12:16:01;;;;;;;;;;;15.40;79.10;;;;;;5010262;28;19913;-61
2021/01/21 12:18:27;;;;;;;;;;;15.00;75.20;;;;;;5020244;28;19928;-62
2021/01/21 12:20:53;;;;;;;;;;;14.50;75.80;;;;;;5009619;28;19913;-62
2021/01/21 12:23:18;;;;;;;;;;;14.60;75.40;;;;;;5021461;28;20381;-64
2021/01/21 12:25:44;;;;;;;;;;;14.90;74.80;;;;;;5018784;28;19917;-63
2021/01/21 12:28:10;;;;;;;;;;;14.80;74.40;;;;;;5018960;28;20432;-60
2021/01/21 12:30:35;;;;;;;;;;;15.80;72.80;;;;;;5022457;28;19968;-62
2021/01/21 12:33:01;;;;;;;;;;;15.60;72.80;;;;;;5020963;28;20625;-62
2021/01/21 12:35:26;;;;;;;;;;;15.70;71.40;;;;;;5021980;28;19920;-62
2021/01/21 12:37:52;;;;;;;;;;;15.50;71.40;;;;;;5017947;28;20043;-63
2021/01/21 12:40:17;;;;;;;;;;;15.50;70.50;;;;;;5012154;28;19932;-60
2021/01/21 12:42:44;;;;;;;;;;;15.20;71.70;;;;;;5002708;28;19921;-61
2021/01/21 12:45:09;;;;;;;;;;;14.60;68.30;;;;;;5018574;28;20361;-63
2021/01/21 12:47:37;;;;;;;;;;;14.30;71.90;;;;;;4996631;28;19920;-64
2021/01/21 12:50:04;;;;;;;;;;;13.70;73.50;;;;;;5013018;28;19921;-61
2021/01/21 12:52:30;;;;;;;;;;;13.60;72.80;;;;;;5020313;28;19921;-63
2021/01/21 12:54:57;;;;;;;;;;;13.50;73.80;;;;;;5013827;28;20032;-63
2021/01/21 12:57:23;;;;;;;;;;;13.50;74.70;;;;;;5017175;28;20320;-61
2021/01/21 12:59:49;;;;;;;;;;;13.20;74.50;;;;;;5014825;28;19924;-63
2021/01/21 13:02:14;;;;;;;;;;;13.00;75.00;;;;;;5001245;28;19924;-63
2021/01/21 13:04:40;;;;;;;;;;;12.60;75.50;;;;;;5020571;28;19987;-63
2021/01/21 13:07:06;;;;;;;;;;;12.80;76.60;;;;;;5017875;28;19983;-62
2021/01/21 13:09:32;;;;;;;;;;;12.20;77.30;;;;;;5019696;28;20743;-64
2021/01/21 13:11:57;;;;;;;;;;;11.80;77.50;;;;;;5019974;28;20245;-64
2021/01/21 13:14:23;;;;;;;;;;;11.90;78.20;;;;;;5019825;28;19913;-65
2021/01/21 13:16:48;;;;;;;;;;;11.50;78.20;;;;;;5016586;28;20566;-61
2021/01/21 13:19:14;;;;;;;;;;;11.40;78.20;;;;;;5034948;28;19955;-63
2021/01/21 13:21:41;;;;;;;;;;;11.30;78.80;;;;;;5019740;28;20439;-63
2021/01/21 13:24:07;;;;;;;;;;;11.50;79.10;;;;;;5030753;28;20659;-62
2021/01/21 13:26:32;;;;;;;;;;;11.40;79.00;;;;;;5021244;28;19913;-64
2021/01/21 13:28:58;;;;;;;;;;;11.20;79.20;;;;;;5003349;28;20270;-63
2021/01/21 13:31:23;;;;;;;;;;;11.60;79.70;;;;;;5021352;28;19913;-63
2021/01/21 13:33:49;;;;;;;;;;;11.50;79.60;;;;;;5016377;28;19921;-64
2021/01/21 13:36:14;;;;;;;;;;;12.10;77.90;;;;;;5020190;28;19921;-63
2021/01/21 13:38:40;;;;;;;;;;;12.60;77.10;;;;;;5018491;28;19914;-63
2021/01/21 13:41:06;;;;;;;;;;;12.90;77.40;;;;;;5020423;28;20379;-62
2021/01/21 13:43:33;;;;;;;;;;;12.90;77.80;;;;;;5018525;28;20362;-63
2021/01/21 13:45:59;;;;;;;;;;;13.10;76.80;;;;;;5004871;28;20953;-62
2021/01/21 13:48:24;;;;;;;;;;;13.20;76.00;;;;;;5019632;28;19913;-62
2021/01/21 13:50:50;;;;;;;;;;;13.20;76.40;;;;;;5019897;28;20007;-61
2021/01/21 13:53:15;;;;;;;;;;;12.70;76.50;;;;;;5014668;28;19928;-62
2021/01/21 13:55:41;;;;;;;;;;;13.00;76.10;;;;;;5003052;28;19917;-63
2021/01/21 13:58:06;;;;;;;;;;;12.90;76.20;;;;;;5015866;28;19917;-63
2021/01/21 14:00:32;;;;;;;;;;;13.00;76.70;;;;;;5018188;28;19952;-63
2021/01/21 14:02:57;;;;;;;;;;;13.20;76.50;;;;;;5006681;28;20004;-62
2021/01/21 14:05:23;;;;;;;;;;;12.70;76.70;;;;;;5023767;28;19917;-65
2021/01/21 14:07:48;;;;;;;;;;;12.70;76.30;;;;;;5023716;28;19979;-64
2021/01/21 14:10:14;;;;;;;;;;;12.60;76.20;;;;;;5007317;28;20016;-63
2021/01/21 14:12:40;;;;;;;;;;;13.00;75.80;;;;;;5006891;28;20420;-64
2021/01/21 14:15:06;;;;;;;;;;;13.00;75.10;;;;;;5006758;28;19917;-61
2021/01/21 14:17:32;;;;;;;;;;;13.20;73.40;;;;;;5023384;28;19921;-64
2021/01/21 14:19:58;;;;;;;;;;;13.10;72.90;;;;;;5024814;28;20002;-62
2021/01/21 14:22:23;;;;;;;;;;;12.90;76.30;;;;;;5005046;28;19960;-62